Hlavní strana
METAR-TAF:

METAR-TAF

Letiště :

Mendoza, Argentina

zeměpisná šířka: 32-50S, zeměpisná délka: 068-47W, výška: 705 m

Aktuální stav počasí

Zpráva byla vytvořena před 21 minutami, v 00:00 UTC
Bezvětří
Teplota 28°C
Vlhkost vzduchu 37%
Tlak 1013 hPa
Viditelnost 10 km a více
Skoro jasno ve výšce 4000 ft, Vertikální cumulus.
Polojasno ve výšce 4500 ft

METAR: SAME 180000Z 00000KT 9999 FEW040TCU SCT045 28/12 Q1013

Čas: 21:21 (00:21 UTC)

Předpověď počasí

Zpráva byla vytvořena před 1 hodinou a 21 minutami, v 23:00 UTC
Předpověď platná od 18 v 00 UTC do 18 v 24 UTC
Jihovýchodní vítr 5 kt
Viditelnost 10 km a více
Polojasno ve výšce 4500 ft

TAF: SAME 172300Z 1800/1824 14005KT 9999 SCT045 TX30/1820Z TN20/1810Z

Stav a předpovědi počasí z více než 4 000 letišť (zprávy METAR a TAF).

Červené a žluté tečky na mapě představují dostupné meteorologické stanice.

Když kurzor umístíte na tečku, zobrazí se název stanice.

Pak kliknutím zobrazíte stav a předpověď počasí.

Chcete-li změnit mapu, kliknutím na zelené tlačítko se znaménkem +mapu přiblížíte, kliknutím na zelené tlačítko se znaménkem – mapu oddálíte a kliknutím na zelené šipky přejdete na sousední mapy.


METAR-TAF: